sensor_id;sensor_type;location;lat;lon;timestamp;pressure;altitude;pressure_sealevel;temperature;humidity
67842;BME280;54642;59.126;37.876;2023-10-13T00:01:34;97589.34;;;7.78;75.62
67842;BME280;54642;59.126;37.876;2023-10-13T00:04:00;97585.94;;;7.77;75.56
67842;BME280;54642;59.126;37.876;2023-10-13T00:06:27;97570.81;;;7.67;75.72
67842;BME280;54642;59.126;37.876;2023-10-13T00:08:53;97543.00;;;7.51;75.62
67842;BME280;54642;59.126;37.876;2023-10-13T00:11:20;97592.94;;;7.74;75.60
67842;BME280;54642;59.126;37.876;2023-10-13T00:13:47;97598.09;;;7.74;75.73
67842;BME280;54642;59.126;37.876;2023-10-13T00:16:20;97606.72;;;7.73;75.61
67842;BME280;54642;59.126;37.876;2023-10-13T00:18:53;97571.09;;;7.59;75.44
67842;BME280;54642;59.126;37.876;2023-10-13T00:21:24;97594.75;;;7.70;75.68
67842;BME280;54642;59.126;37.876;2023-10-13T00:23:59;97550.00;;;7.48;75.54
67842;BME280;54642;59.126;37.876;2023-10-13T00:26:31;97569.34;;;7.59;75.46
67842;BME280;54642;59.126;37.876;2023-10-13T00:29:03;97582.56;;;7.75;75.27
67842;BME280;54642;59.126;37.876;2023-10-13T00:31:55;97556.50;;;7.58;75.21
67842;BME280;54642;59.126;37.876;2023-10-13T00:34:21;97595.72;;;7.68;75.35
67842;BME280;54642;59.126;37.876;2023-10-13T00:36:58;97589.56;;;7.72;75.24
67842;BME280;54642;59.126;37.876;2023-10-13T00:39:53;97565.03;;;7.60;75.22
67842;BME280;54642;59.126;37.876;2023-10-13T00:42:22;97581.22;;;7.63;74.99
67842;BME280;54642;59.126;37.876;2023-10-13T00:45:14;97588.09;;;7.64;75.16
67842;BME280;54642;59.126;37.876;2023-10-13T00:47:43;97573.81;;;7.54;75.10
67842;BME280;54642;59.126;37.876;2023-10-13T00:50:22;97594.03;;;7.67;75.12
67842;BME280;54642;59.126;37.876;2023-10-13T00:52:50;97577.88;;;7.61;75.17
67842;BME280;54642;59.126;37.876;2023-10-13T00:55:18;97555.97;;;7.48;75.06
67842;BME280;54642;59.126;37.876;2023-10-13T00:57:52;97584.50;;;7.69;74.95
67842;BME280;54642;59.126;37.876;2023-10-13T01:00:23;97568.78;;;7.51;74.98
67842;BME280;54642;59.126;37.876;2023-10-13T01:02:54;97570.34;;;7.55;75.07
67842;BME280;54642;59.126;37.876;2023-10-13T01:05:25;97587.13;;;7.67;75.04
67842;BME280;54642;59.126;37.876;2023-10-13T01:07:51;97586.66;;;7.56;74.83
67842;BME280;54642;59.126;37.876;2023-10-13T01:10:21;97584.16;;;7.53;75.12
67842;BME280;54642;59.126;37.876;2023-10-13T01:12:52;97608.75;;;7.63;75.35
67842;BME280;54642;59.126;37.876;2023-10-13T01:15:18;97607.13;;;7.60;75.29
67842;BME280;54642;59.126;37.876;2023-10-13T01:17:46;97590.22;;;7.52;75.44
67842;BME280;54642;59.126;37.876;2023-10-13T01:20:14;97581.75;;;7.48;75.28
67842;BME280;54642;59.126;37.876;2023-10-13T01:23:04;97593.53;;;7.55;75.60
67842;BME280;54642;59.126;37.876;2023-10-13T01:25:30;97594.38;;;7.56;75.78
67842;BME280;54642;59.126;37.876;2023-10-13T01:27:56;97600.94;;;7.66;75.72
67842;BME280;54642;59.126;37.876;2023-10-13T01:30:23;97593.31;;;7.61;75.77
67842;BME280;54642;59.126;37.876;2023-10-13T01:32:52;97601.84;;;7.63;75.77
67842;BME280;54642;59.126;37.876;2023-10-13T01:35:19;97592.34;;;7.66;75.96
67842;BME280;54642;59.126;37.876;2023-10-13T01:37:52;97573.00;;;7.52;75.86
67842;BME280;54642;59.126;37.876;2023-10-13T01:40:18;97542.53;;;7.38;76.12
67842;BME280;54642;59.126;37.876;2023-10-13T01:42:47;97616.69;;;7.57;76.31
67842;BME280;54642;59.126;37.876;2023-10-13T01:45:21;97650.25;;;7.55;76.44
67842;BME280;54642;59.126;37.876;2023-10-13T01:47:47;97590.69;;;7.36;76.32
67842;BME280;54642;59.126;37.876;2023-10-13T01:50:16;97615.63;;;7.36;76.22
67842;BME280;54642;59.126;37.876;2023-10-13T01:52:52;97621.91;;;7.27;76.35
67842;BME280;54642;59.126;37.876;2023-10-13T01:55:25;97616.84;;;7.24;76.44
67842;BME280;54642;59.126;37.876;2023-10-13T01:57:51;97605.09;;;7.15;76.10
67842;BME280;54642;59.126;37.876;2023-10-13T02:00:17;97615.53;;;7.11;76.08
67842;BME280;54642;59.126;37.876;2023-10-13T02:02:46;97625.00;;;7.10;76.08
67842;BME280;54642;59.126;37.876;2023-10-13T02:05:16;97619.19;;;7.03;76.17
67842;BME280;54642;59.126;37.876;2023-10-13T02:07:43;97629.34;;;7.08;76.16
67842;BME280;54642;59.126;37.876;2023-10-13T02:10:12;97641.34;;;7.09;76.41
67842;BME280;54642;59.126;37.876;2023-10-13T02:12:40;97649.25;;;7.03;76.14
67842;BME280;54642;59.126;37.876;2023-10-13T02:15:11;97634.75;;;6.99;76.20
67842;BME280;54642;59.126;37.876;2023-10-13T02:17:48;97656.88;;;7.06;76.50
67842;BME280;54642;59.126;37.876;2023-10-13T02:20:18;97653.50;;;7.04;76.52
67842;BME280;54642;59.126;37.876;2023-10-13T02:22:43;97643.66;;;6.89;76.55
67842;BME280;54642;59.126;37.876;2023-10-13T02:25:19;97666.56;;;6.98;76.51
67842;BME280;54642;59.126;37.876;2023-10-13T02:28:02;97668.38;;;6.94;76.55
67842;BME280;54642;59.126;37.876;2023-10-13T02:30:28;97665.03;;;6.92;76.63
67842;BME280;54642;59.126;37.876;2023-10-13T02:32:55;97653.97;;;6.89;76.86
67842;BME280;54642;59.126;37.876;2023-10-13T02:35:21;97639.69;;;6.77;76.83
67842;BME280;54642;59.126;37.876;2023-10-13T02:37:56;97666.66;;;6.95;77.19
67842;BME280;54642;59.126;37.876;2023-10-13T02:40:24;97660.63;;;6.96;77.18
67842;BME280;54642;59.126;37.876;2023-10-13T02:42:50;97657.50;;;6.84;77.37
67842;BME280;54642;59.126;37.876;2023-10-13T02:45:16;97632.81;;;6.77;77.33
67842;BME280;54642;59.126;37.876;2023-10-13T02:47:47;97668.16;;;7.02;77.52
67842;BME280;54642;59.126;37.876;2023-10-13T02:50:33;97657.06;;;7.00;77.76
67842;BME280;54642;59.126;37.876;2023-10-13T02:52:59;97672.31;;;7.06;77.63
67842;BME280;54642;59.126;37.876;2023-10-13T02:55:25;97672.25;;;7.09;77.70
67842;BME280;54642;59.126;37.876;2023-10-13T02:57:51;97646.94;;;6.94;77.84
67842;BME280;54642;59.126;37.876;2023-10-13T03:00:21;97673.94;;;7.10;77.80
67842;BME280;54642;59.126;37.876;2023-10-13T03:02:49;97675.69;;;7.08;77.71
67842;BME280;54642;59.126;37.876;2023-10-13T03:05:24;97694.41;;;7.15;78.15
67842;BME280;54642;59.126;37.876;2023-10-13T03:07:49;97688.31;;;7.17;78.01
67842;BME280;54642;59.126;37.876;2023-10-13T03:10:16;97681.38;;;7.19;77.97
67842;BME280;54642;59.126;37.876;2023-10-13T03:12:44;97667.22;;;7.04;77.63
67842;BME280;54642;59.126;37.876;2023-10-13T03:15:14;97695.81;;;7.25;77.75
67842;BME280;54642;59.126;37.876;2023-10-13T03:17:44;97677.34;;;7.11;77.45
67842;BME280;54642;59.126;37.876;2023-10-13T03:20:11;97695.81;;;7.25;77.64
67842;BME280;54642;59.126;37.876;2023-10-13T03:22:39;97689.91;;;7.21;77.78
67842;BME280;54642;59.126;37.876;2023-10-13T03:25:06;97688.25;;;7.19;77.49
67842;BME280;54642;59.126;37.876;2023-10-13T03:27:33;97688.25;;;7.19;77.50
67842;BME280;54642;59.126;37.876;2023-10-13T03:30:18;97697.63;;;7.21;77.28
67842;BME280;54642;59.126;37.876;2023-10-13T03:32:47;97684.13;;;7.13;77.32
67842;BME280;54642;59.126;37.876;2023-10-13T03:35:22;97701.97;;;7.21;77.17
67842;BME280;54642;59.126;37.876;2023-10-13T03:38:03;97683.41;;;7.08;77.01
67842;BME280;54642;59.126;37.876;2023-10-13T03:40:30;97694.53;;;7.10;76.92
67842;BME280;54642;59.126;37.876;2023-10-13T03:42:57;97687.69;;;7.09;76.74
67842;BME280;54642;59.126;37.876;2023-10-13T03:45:37;97723.56;;;7.15;76.79
67842;BME280;54642;59.126;37.876;2023-10-13T03:48:15;97714.00;;;7.19;76.72
67842;BME280;54642;59.126;37.876;2023-10-13T03:51:01;97739.63;;;7.25;76.62
67842;BME280;54642;59.126;37.876;2023-10-13T03:53:31;97719.22;;;7.17;76.46
67842;BME280;54642;59.126;37.876;2023-10-13T03:56:04;97729.44;;;7.20;76.37
67842;BME280;54642;59.126;37.876;2023-10-13T03:58:52;97715.78;;;7.17;76.21
67842;BME280;54642;59.126;37.876;2023-10-13T04:01:37;97742.03;;;7.30;76.13
67842;BME280;54642;59.126;37.876;2023-10-13T04:04:09;97743.81;;;7.28;76.02
67842;BME280;54642;59.126;37.876;2023-10-13T04:06:40;97726.13;;;7.15;75.77
67842;BME280;54642;59.126;37.876;2023-10-13T04:09:22;97764.22;;;7.35;75.88
67842;BME280;54642;59.126;37.876;2023-10-13T04:12:02;97755.69;;;7.33;75.50
67842;BME280;54642;59.126;37.876;2023-10-13T04:14:44;97755.75;;;7.32;75.47
67842;BME280;54642;59.126;37.876;2023-10-13T04:17:30;97772.06;;;7.31;75.37
67842;BME280;54642;59.126;37.876;2023-10-13T04:19:59;97773.81;;;7.30;74.81
67842;BME280;54642;59.126;37.876;2023-10-13T04:22:35;97764.47;;;7.26;74.49
67842;BME280;54642;59.126;37.876;2023-10-13T04:28:04;97740.34;;;6.99;75.16
67842;BME280;54642;59.126;37.876;2023-10-13T04:30:44;97784.28;;;7.24;75.18
67842;BME280;54642;59.126;37.876;2023-10-13T04:33:19;97761.84;;;6.98;75.34
67842;BME280;54642;59.126;37.876;2023-10-13T04:36:13;97775.25;;;7.09;75.31
67842;BME280;54642;59.126;37.876;2023-10-13T04:38:46;97794.16;;;7.08;75.17
67842;BME280;54642;59.126;37.876;2023-10-13T04:41:24;97811.88;;;7.19;75.09
67842;BME280;54642;59.126;37.876;2023-10-13T04:43:50;97817.00;;;7.20;74.92
67842;BME280;54642;59.126;37.876;2023-10-13T04:46:25;97807.59;;;7.19;74.67
67842;BME280;54642;59.126;37.876;2023-10-13T04:49:01;97830.00;;;7.17;74.82
67842;BME280;54642;59.126;37.876;2023-10-13T04:51:38;97830.00;;;7.17;74.82
67842;BME280;54642;59.126;37.876;2023-10-13T04:54:27;97836.88;;;7.15;74.78
67842;BME280;54642;59.126;37.876;2023-10-13T04:57:00;97842.75;;;7.20;74.71
67842;BME280;54642;59.126;37.876;2023-10-13T04:59:48;97807.25;;;7.00;74.73
67842;BME280;54642;59.126;37.876;2023-10-13T05:02:32;97846.22;;;7.21;74.63
67842;BME280;54642;59.126;37.876;2023-10-13T05:05:02;97845.44;;;7.17;74.75
67842;BME280;54642;59.126;37.876;2023-10-13T05:07:32;97855.75;;;7.17;74.35
67842;BME280;54642;59.126;37.876;2023-10-13T05:10:17;97852.47;;;7.11;74.33
67842;BME280;54642;59.126;37.876;2023-10-13T05:13:02;97832.94;;;7.03;74.13
67842;BME280;54642;59.126;37.876;2023-10-13T05:15:50;97865.47;;;7.06;73.59
67842;BME280;54642;59.126;37.876;2023-10-13T05:18:35;97889.13;;;7.20;73.46
67842;BME280;54642;59.126;37.876;2023-10-13T05:21:20;97874.91;;;7.07;73.50
67842;BME280;54642;59.126;37.876;2023-10-13T05:24:04;97888.25;;;7.21;72.97
67842;BME280;54642;59.126;37.876;2023-10-13T05:26:49;97886.66;;;7.17;72.84
67842;BME280;54642;59.126;37.876;2023-10-13T05:29:33;97894.38;;;7.17;72.98
67842;BME280;54642;59.126;37.876;2023-10-13T05:32:17;97887.81;;;7.05;72.83
67842;BME280;54642;59.126;37.876;2023-10-13T05:35:02;97919.22;;;7.20;72.95
67842;BME280;54642;59.126;37.876;2023-10-13T05:37:46;97922.56;;;7.23;72.89
67842;BME280;54642;59.126;37.876;2023-10-13T05:40:30;97915.19;;;7.08;72.64
67842;BME280;54642;59.126;37.876;2023-10-13T05:43:14;97918.53;;;7.12;72.67
67842;BME280;54642;59.126;37.876;2023-10-13T05:46:03;97938.00;;;7.23;72.81
67842;BME280;54642;59.126;37.876;2023-10-13T05:48:48;97920.31;;;7.10;73.17
67842;BME280;54642;59.126;37.876;2023-10-13T05:51:26;97960.25;;;7.26;73.10
67842;BME280;54642;59.126;37.876;2023-10-13T05:54:02;97967.91;;;7.29;72.74
67842;BME280;54642;59.126;37.876;2023-10-13T05:56:41;97978.91;;;7.36;72.82
67842;BME280;54642;59.126;37.876;2023-10-13T05:59:26;97951.81;;;7.21;72.63
67842;BME280;54642;59.126;37.876;2023-10-13T06:02:10;97983.31;;;7.32;72.75
67842;BME280;54642;59.126;37.876;2023-10-13T06:04:56;97989.06;;;7.42;72.58
67842;BME280;54642;59.126;37.876;2023-10-13T06:07:40;97992.69;;;7.35;72.31
67842;BME280;54642;59.126;37.876;2023-10-13T06:10:24;98005.41;;;7.41;72.41
67842;BME280;54642;59.126;37.876;2023-10-13T06:13:08;98002.91;;;7.38;72.22
67842;BME280;54642;59.126;37.876;2023-10-13T06:15:53;97998.78;;;7.31;71.95
67842;BME280;54642;59.126;37.876;2023-10-13T06:18:37;98008.91;;;7.38;71.88
67842;BME280;54642;59.126;37.876;2023-10-13T06:21:21;98008.97;;;7.37;71.82
67842;BME280;54642;59.126;37.876;2023-10-13T06:24:07;98028.38;;;7.50;71.42
67842;BME280;54642;59.126;37.876;2023-10-13T06:26:51;98039.34;;;7.58;71.35
67842;BME280;54642;59.126;37.876;2023-10-13T06:29:35;98052.88;;;7.67;71.37
67842;BME280;54642;59.126;37.876;2023-10-13T06:32:01;98032.69;;;7.50;70.84
67842;BME280;54642;59.126;37.876;2023-10-13T06:34:30;98064.94;;;7.66;71.28
67842;BME280;54642;59.126;37.876;2023-10-13T06:37:12;98057.31;;;7.61;71.06
67842;BME280;54642;59.126;37.876;2023-10-13T06:40:02;98074.31;;;7.69;71.02
67842;BME280;54642;59.126;37.876;2023-10-13T06:42:33;98066.81;;;7.59;71.06
67842;BME280;54642;59.126;37.876;2023-10-13T06:45:09;98088.91;;;7.70;70.97
67842;BME280;54642;59.126;37.876;2023-10-13T06:47:35;98101.78;;;7.70;71.01
67842;BME280;54642;59.126;37.876;2023-10-13T06:50:09;98102.81;;;7.62;71.06
67842;BME280;54642;59.126;37.876;2023-10-13T06:53:01;98096.00;;;7.60;71.08
67842;BME280;54642;59.126;37.876;2023-10-13T06:55:27;98113.09;;;7.64;71.21
67842;BME280;54642;59.126;37.876;2023-10-13T06:57:54;98103.81;;;7.57;70.87
67842;BME280;54642;59.126;37.876;2023-10-13T07:00:26;98127.69;;;7.63;70.74
67842;BME280;54642;59.126;37.876;2023-10-13T07:02:55;98125.34;;;7.54;70.74
67842;BME280;54642;59.126;37.876;2023-10-13T07:05:38;98130.06;;;7.37;71.23
67842;BME280;54642;59.126;37.876;2023-10-13T07:08:05;98186.34;;;7.55;71.46
67842;BME280;54642;59.126;37.876;2023-10-13T07:10:32;98172.09;;;7.40;71.92
67842;BME280;54642;59.126;37.876;2023-10-13T07:13:10;98185.00;;;7.39;71.99
67842;BME280;54642;59.126;37.876;2023-10-13T07:15:36;98188.69;;;7.27;72.50
67842;BME280;54642;59.126;37.876;2023-10-13T07:18:14;98155.75;;;7.01;72.33
67842;BME280;54642;59.126;37.876;2023-10-13T07:20:41;98185.53;;;7.14;72.64
67842;BME280;54642;59.126;37.876;2023-10-13T07:23:11;98195.69;;;7.20;72.57
67842;BME280;54642;59.126;37.876;2023-10-13T07:25:54;98205.84;;;7.28;72.60
67842;BME280;54642;59.126;37.876;2023-10-13T07:28:37;98209.31;;;7.25;72.78
67842;BME280;54642;59.126;37.876;2023-10-13T07:31:13;98214.63;;;7.19;72.86
67842;BME280;54642;59.126;37.876;2023-10-13T07:33:40;98222.97;;;7.29;72.72
67842;BME280;54642;59.126;37.876;2023-10-13T07:36:09;98234.06;;;7.33;72.89
67842;BME280;54642;59.126;37.876;2023-10-13T07:38:45;98209.47;;;7.19;72.62
67842;BME280;54642;59.126;37.876;2023-10-13T07:41:15;98204.09;;;7.29;72.34
67842;BME280;54642;59.126;37.876;2023-10-13T07:43:42;98217.28;;;7.55;71.69
67842;BME280;54642;59.126;37.876;2023-10-13T07:46:09;98204.75;;;7.76;70.82
67842;BME280;54642;59.126;37.876;2023-10-13T07:48:41;98201.00;;;7.91;70.35
67842;BME280;54642;59.126;37.876;2023-10-13T07:51:11;98233.09;;;8.13;70.08
67842;BME280;54642;59.126;37.876;2023-10-13T07:53:42;98227.53;;;8.30;69.35
67842;BME280;54642;59.126;37.876;2023-10-13T07:56:10;98229.59;;;8.52;68.46
67842;BME280;54642;59.126;37.876;2023-10-13T07:58:39;98247.66;;;8.53;68.10
67842;BME280;54642;59.126;37.876;2023-10-13T08:01:26;98225.53;;;8.42;67.80
67842;BME280;54642;59.126;37.876;2023-10-13T08:03:52;98259.91;;;8.44;67.61
67842;BME280;54642;59.126;37.876;2023-10-13T08:06:30;98270.41;;;8.36;67.57
67842;BME280;54642;59.126;37.876;2023-10-13T08:08:56;98236.31;;;8.23;68.05
67842;BME280;54642;59.126;37.876;2023-10-13T08:11:45;98280.34;;;8.53;67.59
67842;BME280;54642;59.126;37.876;2023-10-13T08:14:11;98231.00;;;8.29;67.40
67842;BME280;54642;59.126;37.876;2023-10-13T08:16:39;98244.88;;;8.25;67.58
67842;BME280;54642;59.126;37.876;2023-10-13T08:19:24;98282.03;;;8.54;67.27
67842;BME280;54642;59.126;37.876;2023-10-13T08:21:58;98295.72;;;8.57;67.07
67842;BME280;54642;59.126;37.876;2023-10-13T08:24:51;98307.78;;;8.57;66.89
67842;BME280;54642;59.126;37.876;2023-10-13T08:27:21;98313.75;;;8.59;66.71
67842;BME280;54642;59.126;37.876;2023-10-13T08:29:59;98307.78;;;8.57;66.74
67842;BME280;54642;59.126;37.876;2023-10-13T08:32:31;98292.63;;;8.42;66.49
67842;BME280;54642;59.126;37.876;2023-10-13T08:34:58;98319.00;;;8.56;66.61
67842;BME280;54642;59.126;37.876;2023-10-13T08:37:28;98313.75;;;8.59;66.55
67842;BME280;54642;59.126;37.876;2023-10-13T08:39:56;98308.06;;;8.46;66.37
67842;BME280;54642;59.126;37.876;2023-10-13T08:42:38;98332.66;;;8.61;65.98
67842;BME280;54642;59.126;37.876;2023-10-13T08:45:09;98315.50;;;8.58;66.36
67842;BME280;54642;59.126;37.876;2023-10-13T08:56:08;98346.50;;;8.93;64.77
67842;BME280;54642;59.126;37.876;2023-10-13T08:58:41;98375.94;;;8.86;64.07
67842;BME280;54642;59.126;37.876;2023-10-13T09:01:25;98359.94;;;8.71;63.83
67842;BME280;54642;59.126;37.876;2023-10-13T09:04:10;98358.31;;;8.67;63.96
67842;BME280;54642;59.126;37.876;2023-10-13T09:07:05;98380.22;;;8.87;63.89
67842;BME280;54642;59.126;37.876;2023-10-13T09:12:13;98402.22;;;9.03;63.87
67842;BME280;54642;59.126;37.876;2023-10-13T09:14:43;98389.44;;;8.97;64.11
67842;BME280;54642;59.126;37.876;2023-10-13T09:17:23;98411.69;;;9.03;63.46
67842;BME280;54642;59.126;37.876;2023-10-13T09:20:04;98432.34;;;9.03;63.76
67842;BME280;54642;59.126;37.876;2023-10-13T09:22:53;98419.53;;;9.00;63.20
67842;BME280;54642;59.126;37.876;2023-10-13T09:25:33;98415.63;;;8.82;63.61
67842;BME280;54642;59.126;37.876;2023-10-13T09:28:11;98444.78;;;8.87;63.59
67842;BME280;54642;59.126;37.876;2023-10-13T09:30:44;98434.69;;;8.77;63.39
67842;BME280;54642;59.126;37.876;2023-10-13T09:33:11;98415.25;;;8.63;63.47
67842;BME280;54642;59.126;37.876;2023-10-13T09:35:46;98453.66;;;8.76;63.28
67842;BME280;54642;59.126;37.876;2023-10-13T09:38:16;98457.13;;;8.75;63.13
67842;BME280;54642;59.126;37.876;2023-10-13T09:40:43;98457.91;;;8.77;63.29
67842;BME280;54642;59.126;37.876;2023-10-13T09:43:18;98462.13;;;8.82;63.36
67842;BME280;54642;59.126;37.876;2023-10-13T09:45:48;98446.06;;;8.69;63.21
67842;BME280;54642;59.126;37.876;2023-10-13T09:48:44;98463.25;;;8.71;63.11
67842;BME280;54642;59.126;37.876;2023-10-13T09:51:14;98480.16;;;8.83;63.05
67842;BME280;54642;59.126;37.876;2023-10-13T09:53:47;98481.03;;;8.84;62.98
67842;BME280;54642;59.126;37.876;2023-10-13T09:56:25;98464.97;;;8.71;62.70
67842;BME280;54642;59.126;37.876;2023-10-13T09:58:58;98479.50;;;8.76;62.64
67842;BME280;54642;59.126;37.876;2023-10-13T10:01:39;98498.16;;;8.88;62.19
67842;BME280;54642;59.126;37.876;2023-10-13T10:04:16;98476.97;;;8.73;62.05
67842;BME280;54642;59.126;37.876;2023-10-13T10:06:57;98512.72;;;8.90;61.79
67842;BME280;54642;59.126;37.876;2023-10-13T10:09:27;98518.84;;;8.86;61.01
67842;BME280;54642;59.126;37.876;2023-10-13T10:12:07;98530.91;;;8.87;61.08
67842;BME280;54642;59.126;37.876;2023-10-13T10:17:28;98543.06;;;8.82;61.01
67842;BME280;54642;59.126;37.876;2023-10-13T10:19:55;98552.59;;;8.80;60.99
67842;BME280;54642;59.126;37.876;2023-10-13T10:22:25;98521.78;;;8.71;60.68
67842;BME280;54642;59.126;37.876;2023-10-13T10:24:59;98564.41;;;8.90;60.65
67842;BME280;54642;59.126;37.876;2023-10-13T10:27:30;98571.25;;;8.93;60.57
67842;BME280;54642;59.126;37.876;2023-10-13T10:29:57;98567.75;;;8.94;60.77
67842;BME280;54642;59.126;37.876;2023-10-13T10:35:09;98564.59;;;8.81;60.74
67842;BME280;54642;59.126;37.876;2023-10-13T10:37:41;98582.34;;;8.98;60.65
67842;BME280;54642;59.126;37.876;2023-10-13T10:40:18;98596.13;;;8.97;60.25
67842;BME280;54642;59.126;37.876;2023-10-13T10:43:03;98577.53;;;8.81;60.52
67842;BME280;54642;59.126;37.876;2023-10-13T10:45:36;98601.38;;;8.92;59.99
67842;BME280;54642;59.126;37.876;2023-10-13T10:48:02;98598.06;;;8.87;60.34
67842;BME280;54642;59.126;37.876;2023-10-13T10:50:44;98609.22;;;8.89;59.76
67842;BME280;54642;59.126;37.876;2023-10-13T10:53:23;98613.34;;;8.98;59.73
67842;BME280;54642;59.126;37.876;2023-10-13T10:56:08;98594.09;;;9.11;59.70
67842;BME280;54642;59.126;37.876;2023-10-13T10:58:49;98621.22;;;9.31;59.03
67842;BME280;54642;59.126;37.876;2023-10-13T11:01:24;98632.97;;;9.44;58.49
67842;BME280;54642;59.126;37.876;2023-10-13T11:03:54;98649.47;;;9.39;58.79
67842;BME280;54642;59.126;37.876;2023-10-13T11:06:25;98655.56;;;9.36;58.99
67842;BME280;54642;59.126;37.876;2023-10-13T11:09:04;98653.09;;;9.30;58.46
67842;BME280;54642;59.126;37.876;2023-10-13T11:11:30;98652.97;;;9.36;59.61
67842;BME280;54642;59.126;37.876;2023-10-13T11:14:01;98645.59;;;9.19;59.27
67842;BME280;54642;59.126;37.876;2023-10-13T11:16:47;98654.28;;;9.16;58.79
67842;BME280;54642;59.126;37.876;2023-10-13T11:19:17;98646.59;;;9.12;58.40
67842;BME280;54642;59.126;37.876;2023-10-13T11:21:54;98671.94;;;9.35;58.33
67842;BME280;54642;59.126;37.876;2023-10-13T11:24:21;98675.28;;;9.40;58.33
67842;BME280;54642;59.126;37.876;2023-10-13T11:26:48;98682.78;;;9.52;58.23
67842;BME280;54642;59.126;37.876;2023-10-13T11:29:19;98696.44;;;9.58;58.01
67842;BME280;54642;59.126;37.876;2023-10-13T11:31:46;98670.00;;;9.46;58.11
67842;BME280;54642;59.126;37.876;2023-10-13T11:34:13;98704.97;;;9.63;57.77
67842;BME280;54642;59.126;37.876;2023-10-13T11:36:42;98709.31;;;9.61;57.23
67842;BME280;54642;59.126;37.876;2023-10-13T11:39:08;98694.75;;;9.57;57.11
67842;BME280;54642;59.126;37.876;2023-10-13T11:41:34;98714.16;;;9.74;56.65
67842;BME280;54642;59.126;37.876;2023-10-13T11:44:04;98678.72;;;9.78;56.23
67842;BME280;54642;59.126;37.876;2023-10-13T11:46:49;98715.84;;;10.13;56.22
67842;BME280;54642;59.126;37.876;2023-10-13T11:49:22;98719.91;;;10.23;55.34
67842;BME280;54642;59.126;37.876;2023-10-13T11:51:54;98700.31;;;10.13;55.10
67842;BME280;54642;59.126;37.876;2023-10-13T11:54:48;98735.38;;;10.61;54.56
67842;BME280;54642;59.126;37.876;2023-10-13T11:57:14;98720.66;;;10.94;54.35
67842;BME280;54642;59.126;37.876;2023-10-13T11:59:43;98718.78;;;10.99;52.58
67842;BME280;54642;59.126;37.876;2023-10-13T12:02:20;98705.88;;;10.98;52.06
67842;BME280;54642;59.126;37.876;2023-10-13T12:04:52;98732.22;;;11.14;51.72
67842;BME280;54642;59.126;37.876;2023-10-13T12:07:23;98732.56;;;11.01;52.10
67842;BME280;54642;59.126;37.876;2023-10-13T12:10:07;98755.94;;;10.67;51.99
67842;BME280;54642;59.126;37.876;2023-10-13T12:12:41;98758.59;;;10.29;52.70
67842;BME280;54642;59.126;37.876;2023-10-13T12:15:09;98768.56;;;10.10;53.22
67842;BME280;54642;59.126;37.876;2023-10-13T12:17:39;98766.22;;;10.00;53.14
67842;BME280;54642;59.126;37.876;2023-10-13T12:20:06;98739.25;;;9.71;53.07
67842;BME280;54642;59.126;37.876;2023-10-13T12:22:38;98779.22;;;9.97;53.53
67842;BME280;54642;59.126;37.876;2023-10-13T12:25:05;98763.75;;;9.93;53.61
67842;BME280;54642;59.126;37.876;2023-10-13T12:27:50;98766.25;;;9.98;53.47
67842;BME280;54642;59.126;37.876;2023-10-13T12:30:21;98773.97;;;10.00;53.46
67842;BME280;54642;59.126;37.876;2023-10-13T12:33:01;98755.06;;;9.96;53.53
67842;BME280;54642;59.126;37.876;2023-10-13T12:35:40;98764.22;;;10.11;52.92
67842;BME280;54642;59.126;37.876;2023-10-13T12:38:38;98771.72;;;10.22;52.75
67842;BME280;54642;59.126;37.876;2023-10-13T12:41:05;98777.63;;;10.28;52.74
67842;BME280;54642;59.126;37.876;2023-10-13T12:43:49;98778.00;;;10.11;52.79
67842;BME280;54642;59.126;37.876;2023-10-13T12:46:34;98795.06;;;10.20;53.17
67842;BME280;54642;59.126;37.876;2023-10-13T12:49:18;98820.63;;;10.36;53.62
67842;BME280;54642;59.126;37.876;2023-10-13T12:52:02;98808.41;;;10.41;53.31
67842;BME280;54642;59.126;37.876;2023-10-13T12:54:28;98799.84;;;10.37;53.52
67842;BME280;54642;59.126;37.876;2023-10-13T12:57:01;98824.38;;;10.58;53.25
67842;BME280;54642;59.126;37.876;2023-10-13T12:59:28;98818.34;;;10.58;52.89
67842;BME280;54642;59.126;37.876;2023-10-13T13:01:54;98796.19;;;10.46;52.84
67842;BME280;54642;59.126;37.876;2023-10-13T13:04:20;98828.38;;;10.72;53.32
67842;BME280;54642;59.126;37.876;2023-10-13T13:06:51;98843.75;;;10.78;52.84
67842;BME280;54642;59.126;37.876;2023-10-13T13:09:19;98844.75;;;10.74;52.82
67842;BME280;54642;59.126;37.876;2023-10-13T13:11:54;98852.31;;;10.81;52.96
67842;BME280;54642;59.126;37.876;2023-10-13T13:14:24;98861.03;;;10.79;53.20
67842;BME280;54642;59.126;37.876;2023-10-13T13:16:56;98849.97;;;10.72;52.42
67842;BME280;54642;59.126;37.876;2023-10-13T13:19:35;98789.66;;;10.29;52.44
67842;BME280;54642;59.126;37.876;2023-10-13T13:22:09;98857.78;;;10.69;52.68
67842;BME280;54642;59.126;37.876;2023-10-13T13:24:42;98874.16;;;10.71;52.94
67842;BME280;54642;59.126;37.876;2023-10-13T13:27:15;98875.97;;;10.67;52.65
67842;BME280;54642;59.126;37.876;2023-10-13T13:29:45;98860.84;;;10.51;52.87
67842;BME280;54642;59.126;37.876;2023-10-13T13:32:12;98888.31;;;10.58;52.96
67842;BME280;54642;59.126;37.876;2023-10-13T13:34:50;98895.38;;;10.49;53.33
67842;BME280;54642;59.126;37.876;2023-10-13T13:37:33;98897.34;;;10.40;53.78
67842;BME280;54642;59.126;37.876;2023-10-13T13:39:59;98902.03;;;10.22;53.71
67842;BME280;54642;59.126;37.876;2023-10-13T13:42:44;98904.13;;;10.05;53.73
67842;BME280;54642;59.126;37.876;2023-10-13T13:45:18;98899.31;;;9.88;54.02
67842;BME280;54642;59.126;37.876;2023-10-13T13:47:48;98918.16;;;9.95;54.20
67842;BME280;54642;59.126;37.876;2023-10-13T13:50:26;98933.75;;;9.91;54.49
67842;BME280;54642;59.126;37.876;2023-10-13T13:52:54;98915.84;;;9.81;54.74
67842;BME280;54642;59.126;37.876;2023-10-13T13:55:23;98936.97;;;10.01;54.91
67842;BME280;54642;59.126;37.876;2023-10-13T13:57:50;98936.16;;;9.99;55.06